sensor_id;sensor_type;location;lat;lon;timestamp;pressure;altitude;pressure_sealevel;temperature;humidity
35649;BME280;21768;48.562;13.414;2023-06-01T00:00:33;97461.47;;;17.07;54.01
35649;BME280;21768;48.562;13.414;2023-06-01T00:02:58;97459.81;;;17.09;54.01
35649;BME280;21768;48.562;13.414;2023-06-01T00:05:23;97464.81;;;17.06;53.79
35649;BME280;21768;48.562;13.414;2023-06-01T00:07:49;97458.53;;;16.98;53.84
35649;BME280;21768;48.562;13.414;2023-06-01T00:10:14;97465.78;;;16.89;54.54
35649;BME280;21768;48.562;13.414;2023-06-01T00:12:40;97463.81;;;16.82;55.01
35649;BME280;21768;48.562;13.414;2023-06-01T00:15:06;97458.72;;;16.82;55.27
35649;BME280;21768;48.562;13.414;2023-06-01T00:17:31;97460.44;;;16.83;55.31
35649;BME280;21768;48.562;13.414;2023-06-01T00:19:57;97460.41;;;16.81;54.83
35649;BME280;21768;48.562;13.414;2023-06-01T00:22:27;97464.56;;;16.79;55.27
35649;BME280;21768;48.562;13.414;2023-06-01T00:24:54;97459.47;;;16.79;55.30
35649;BME280;21768;48.562;13.414;2023-06-01T00:27:20;97459.31;;;16.76;55.65
35649;BME280;21768;48.562;13.414;2023-06-01T00:29:45;97460.13;;;16.75;55.93
35649;BME280;21768;48.562;13.414;2023-06-01T00:32:10;97458.19;;;16.70;56.04
35649;BME280;21768;48.562;13.414;2023-06-01T00:34:36;97454.69;;;16.67;55.87
35649;BME280;21768;48.562;13.414;2023-06-01T00:37:01;97457.25;;;16.67;56.00
35649;BME280;21768;48.562;13.414;2023-06-01T00:39:27;97454.69;;;16.67;55.61
35649;BME280;21768;48.562;13.414;2023-06-01T00:41:52;97450.34;;;16.65;55.53
35649;BME280;21768;48.562;13.414;2023-06-01T00:44:17;97444.22;;;16.61;55.79
35649;BME280;21768;48.562;13.414;2023-06-01T00:46:43;97442.31;;;16.56;55.75
35649;BME280;21768;48.562;13.414;2023-06-01T00:49:08;97442.09;;;16.51;55.85
35649;BME280;21768;48.562;13.414;2023-06-01T00:51:34;97441.97;;;16.48;55.80
35649;BME280;21768;48.562;13.414;2023-06-01T00:54:00;97440.44;;;16.52;56.05
35649;BME280;21768;48.562;13.414;2023-06-01T00:56:25;97437.69;;;16.47;56.07
35649;BME280;21768;48.562;13.414;2023-06-01T00:58:52;97436.59;;;16.42;56.11
35649;BME280;21768;48.562;13.414;2023-06-01T01:01:18;97439.91;;;16.40;56.17
35649;BME280;21768;48.562;13.414;2023-06-01T01:03:48;97438.09;;;16.37;56.15
35649;BME280;21768;48.562;13.414;2023-06-01T01:09:34;97442.13;;;16.32;56.37
35649;BME280;21768;48.562;13.414;2023-06-01T01:12:14;97444.69;;;16.32;56.64
35649;BME280;21768;48.562;13.414;2023-06-01T01:14:50;97441.88;;;16.26;56.80
35649;BME280;21768;48.562;13.414;2023-06-01T01:17:42;97445.59;;;16.15;57.27
35649;BME280;21768;48.562;13.414;2023-06-01T01:20:12;97441.25;;;16.12;57.75
35649;BME280;21768;48.562;13.414;2023-06-01T01:30:59;97441.44;;;15.97;57.81
35649;BME280;21768;48.562;13.414;2023-06-01T01:33:27;97441.31;;;15.94;58.18
35649;BME280;21768;48.562;13.414;2023-06-01T01:35:53;97435.41;;;15.95;58.01
35649;BME280;21768;48.562;13.414;2023-06-01T01:38:18;97433.81;;;15.97;57.95
35649;BME280;21768;48.562;13.414;2023-06-01T01:40:44;97432.88;;;15.95;57.77
35649;BME280;21768;48.562;13.414;2023-06-01T01:43:10;97432.72;;;15.92;57.68
35649;BME280;21768;48.562;13.414;2023-06-01T01:45:36;97433.69;;;15.94;57.71
35649;BME280;21768;48.562;13.414;2023-06-01T01:50:40;97432.72;;;15.92;57.38
35649;BME280;21768;48.562;13.414;2023-06-01T01:53:06;97425.84;;;15.90;57.18
35649;BME280;21768;48.562;13.414;2023-06-01T01:55:34;97422.28;;;15.86;57.04
35649;BME280;21768;48.562;13.414;2023-06-01T01:58:01;97422.09;;;15.82;57.26
35649;BME280;21768;48.562;13.414;2023-06-01T02:00:28;97428.84;;;15.81;57.33
35649;BME280;21768;48.562;13.414;2023-06-01T02:02:54;97425.38;;;15.79;57.33
35649;BME280;21768;48.562;13.414;2023-06-01T02:05:20;97423.00;;;15.84;57.18
35649;BME280;21768;48.562;13.414;2023-06-01T02:07:45;97415.44;;;15.85;57.10
35649;BME280;21768;48.562;13.414;2023-06-01T02:10:10;97418.69;;;15.81;57.35
35649;BME280;21768;48.562;13.414;2023-06-01T02:12:36;97418.53;;;15.78;57.46
35649;BME280;21768;48.562;13.414;2023-06-01T02:15:01;97417.31;;;15.70;57.41
35649;BME280;21768;48.562;13.414;2023-06-01T02:17:27;97413.97;;;15.71;57.64
35649;BME280;21768;48.562;13.414;2023-06-01T02:19:52;97409.03;;;15.74;57.14
35649;BME280;21768;48.562;13.414;2023-06-01T02:22:18;97403.78;;;15.71;57.11
35649;BME280;21768;48.562;13.414;2023-06-01T02:24:43;97408.88;;;15.71;56.80
35649;BME280;21768;48.562;13.414;2023-06-01T02:27:09;97401.25;;;15.71;56.37
35649;BME280;21768;48.562;13.414;2023-06-01T02:29:35;97412.16;;;15.69;56.25
35649;BME280;21768;48.562;13.414;2023-06-01T02:32:03;97408.75;;;15.68;56.74
35649;BME280;21768;48.562;13.414;2023-06-01T02:34:28;97411.00;;;15.62;57.14
35649;BME280;21768;48.562;13.414;2023-06-01T02:36:54;97408.59;;;15.65;57.21
35649;BME280;21768;48.562;13.414;2023-06-01T02:39:23;97409.25;;;15.61;57.34
35649;BME280;21768;48.562;13.414;2023-06-01T02:41:49;97409.16;;;15.58;57.45
35649;BME280;21768;48.562;13.414;2023-06-01T02:44:14;97409.16;;;15.58;57.56
35649;BME280;21768;48.562;13.414;2023-06-01T02:46:39;97408.19;;;15.56;57.73
35649;BME280;21768;48.562;13.414;2023-06-01T02:49:05;97407.22;;;15.54;57.51
35649;BME280;21768;48.562;13.414;2023-06-01T02:51:30;97408.69;;;15.49;57.41
35649;BME280;21768;48.562;13.414;2023-06-01T02:53:56;97410.13;;;15.44;57.34
35649;BME280;21768;48.562;13.414;2023-06-01T02:56:22;97409.91;;;15.39;57.96
35649;BME280;21768;48.562;13.414;2023-06-01T02:58:48;97411.44;;;15.36;58.46
35649;BME280;21768;48.562;13.414;2023-06-01T03:01:13;97412.31;;;15.36;58.14
35649;BME280;21768;48.562;13.414;2023-06-01T03:03:39;97408.84;;;15.34;58.09
35649;BME280;21768;48.562;13.414;2023-06-01T03:06:05;97408.00;;;15.34;58.45
35649;BME280;21768;48.562;13.414;2023-06-01T03:08:32;97407.13;;;15.33;58.43
35649;BME280;21768;48.562;13.414;2023-06-01T03:10:59;97407.84;;;15.30;58.52
35649;BME280;21768;48.562;13.414;2023-06-01T03:13:24;97408.56;;;15.28;58.37
35649;BME280;21768;48.562;13.414;2023-06-01T03:15:52;97400.88;;;15.26;58.64
35649;BME280;21768;48.562;13.414;2023-06-01T03:18:18;97410.09;;;15.24;58.33
35649;BME280;21768;48.562;13.414;2023-06-01T03:20:43;97405.66;;;15.20;58.59
35649;BME280;21768;48.562;13.414;2023-06-01T03:23:09;97409.00;;;15.19;58.11
35649;BME280;21768;48.562;13.414;2023-06-01T03:25:34;97408.84;;;15.16;57.98
35649;BME280;21768;48.562;13.414;2023-06-01T03:28:00;97412.03;;;15.12;58.66
35649;BME280;21768;48.562;13.414;2023-06-01T03:30:25;97412.84;;;15.11;58.44
35649;BME280;21768;48.562;13.414;2023-06-01T03:32:51;97406.16;;;15.13;58.37
35649;BME280;21768;48.562;13.414;2023-06-01T03:35:16;97409.50;;;15.12;58.34
35649;BME280;21768;48.562;13.414;2023-06-01T03:37:44;97414.50;;;15.11;58.37
35649;BME280;21768;48.562;13.414;2023-06-01T03:40:09;97419.53;;;15.09;58.40
35649;BME280;21768;48.562;13.414;2023-06-01T03:42:41;97411.91;;;15.09;58.78
35649;BME280;21768;48.562;13.414;2023-06-01T03:45:07;97413.94;;;15.16;58.87
35649;BME280;21768;48.562;13.414;2023-06-01T03:47:33;97413.94;;;15.16;59.22
35649;BME280;21768;48.562;13.414;2023-06-01T03:49:59;97412.47;;;15.21;59.90
35649;BME280;21768;48.562;13.414;2023-06-01T03:52:25;97417.00;;;15.27;60.18
35649;BME280;21768;48.562;13.414;2023-06-01T03:54:51;97416.13;;;15.26;59.95
35649;BME280;21768;48.562;13.414;2023-06-01T03:57:16;97419.75;;;15.31;59.60
35649;BME280;21768;48.562;13.414;2023-06-01T03:59:42;97412.94;;;15.30;59.82
35649;BME280;21768;48.562;13.414;2023-06-01T04:02:07;97413.88;;;15.32;59.94
35649;BME280;21768;48.562;13.414;2023-06-01T04:04:35;97414.06;;;15.37;60.30
35649;BME280;21768;48.562;13.414;2023-06-01T04:07:01;97413.47;;;15.43;60.07
35649;BME280;21768;48.562;13.414;2023-06-01T04:09:28;97412.16;;;15.51;60.22
35649;BME280;21768;48.562;13.414;2023-06-01T04:11:54;97411.00;;;15.62;59.95
35649;BME280;21768;48.562;13.414;2023-06-01T04:14:20;97414.13;;;15.74;59.57
35649;BME280;21768;48.562;13.414;2023-06-01T04:16:45;97415.66;;;15.90;59.26
35649;BME280;21768;48.562;13.414;2023-06-01T04:19:11;97414.41;;;15.99;59.65
35649;BME280;21768;48.562;13.414;2023-06-01T04:21:37;97411.31;;;16.07;59.76
35649;BME280;21768;48.562;13.414;2023-06-01T04:24:03;97408.00;;;16.09;59.75
35649;BME280;21768;48.562;13.414;2023-06-01T04:26:28;97416.78;;;16.16;59.88
35649;BME280;21768;48.562;13.414;2023-06-01T04:28:59;97418.00;;;16.24;60.35
35649;BME280;21768;48.562;13.414;2023-06-01T04:31:24;97416.97;;;16.40;59.95
35649;BME280;21768;48.562;13.414;2023-06-01T04:33:50;97419.19;;;16.51;59.63
35649;BME280;21768;48.562;13.414;2023-06-01T04:36:22;97417.16;;;16.63;59.04
35649;BME280;21768;48.562;13.414;2023-06-01T04:38:48;97418.56;;;16.76;59.09
35649;BME280;21768;48.562;13.414;2023-06-01T04:41:23;97420.66;;;16.86;59.24
35649;BME280;21768;48.562;13.414;2023-06-01T04:43:49;97420.28;;;16.98;58.59
35649;BME280;21768;48.562;13.414;2023-06-01T04:46:22;97420.47;;;17.03;58.82
35649;BME280;21768;48.562;13.414;2023-06-01T04:48:54;97419.75;;;17.05;59.18
35649;BME280;21768;48.562;13.414;2023-06-01T04:51:25;97414.84;;;17.11;58.99
35649;BME280;21768;48.562;13.414;2023-06-01T04:53:53;97424.38;;;17.15;58.97
35649;BME280;21768;48.562;13.414;2023-06-01T04:56:22;97422.38;;;17.29;58.90
35649;BME280;21768;48.562;13.414;2023-06-01T04:58:55;97410.25;;;17.46;58.81
35649;BME280;21768;48.562;13.414;2023-06-01T05:01:22;97413.25;;;17.58;58.51
35649;BME280;21768;48.562;13.414;2023-06-01T05:03:51;97417.81;;;17.65;58.14
35649;BME280;21768;48.562;13.414;2023-06-01T05:06:19;97412.28;;;17.75;57.61
35649;BME280;21768;48.562;13.414;2023-06-01T05:08:44;97411.78;;;17.85;56.79
35649;BME280;21768;48.562;13.414;2023-06-01T05:11:10;97406.19;;;17.95;56.15
35649;BME280;21768;48.562;13.414;2023-06-01T05:13:37;97407.44;;;18.07;56.24
35649;BME280;21768;48.562;13.414;2023-06-01T05:16:04;97407.03;;;18.18;55.20
35649;BME280;21768;48.562;13.414;2023-06-01T05:18:29;97405.56;;;18.25;54.37
35649;BME280;21768;48.562;13.414;2023-06-01T05:20:55;97404.75;;;18.26;54.51
35649;BME280;21768;48.562;13.414;2023-06-01T05:23:21;97402.25;;;18.27;54.85
35649;BME280;21768;48.562;13.414;2023-06-01T05:25:46;97404.94;;;18.32;54.44
35649;BME280;21768;48.562;13.414;2023-06-01T05:28:11;97407.00;;;18.42;53.68
35649;BME280;21768;48.562;13.414;2023-06-01T05:30:37;97414.19;;;18.52;53.37
35649;BME280;21768;48.562;13.414;2023-06-01T05:33:02;97409.38;;;18.61;52.88
35649;BME280;21768;48.562;13.414;2023-06-01T05:35:28;97407.00;;;18.66;52.72
35649;BME280;21768;48.562;13.414;2023-06-01T05:37:54;97400.50;;;18.76;52.65
35649;BME280;21768;48.562;13.414;2023-06-01T05:40:19;97401.59;;;18.84;52.39
35649;BME280;21768;48.562;13.414;2023-06-01T05:42:45;97400.19;;;18.92;51.92
35649;BME280;21768;48.562;13.414;2023-06-01T05:45:10;97399.66;;;19.02;51.56
35649;BME280;21768;48.562;13.414;2023-06-01T05:47:35;97400.59;;;19.06;52.22
35649;BME280;21768;48.562;13.414;2023-06-01T05:50:01;97395.84;;;19.16;51.17
35649;BME280;21768;48.562;13.414;2023-06-01T05:52:27;97400.38;;;19.25;51.11
35649;BME280;21768;48.562;13.414;2023-06-01T05:54:52;97399.72;;;19.32;51.09
35649;BME280;21768;48.562;13.414;2023-06-01T05:57:19;97398.13;;;19.35;51.45
35649;BME280;21768;48.562;13.414;2023-06-01T05:59:45;97400.84;;;19.40;51.37
35649;BME280;21768;48.562;13.414;2023-06-01T06:02:12;97398.44;;;19.45;51.37
35649;BME280;21768;48.562;13.414;2023-06-01T06:04:38;97395.38;;;19.55;51.07
35649;BME280;21768;48.562;13.414;2023-06-01T06:07:03;97395.63;;;19.64;50.59
35649;BME280;21768;48.562;13.414;2023-06-01T06:09:31;97401.84;;;19.72;49.60
35649;BME280;21768;48.562;13.414;2023-06-01T06:11:57;97397.00;;;19.83;50.48
35649;BME280;21768;48.562;13.414;2023-06-01T06:14:23;97405.03;;;19.93;50.14
35649;BME280;21768;48.562;13.414;2023-06-01T06:16:49;97396.06;;;20.09;49.43
35649;BME280;21768;48.562;13.414;2023-06-01T06:19:14;97394.59;;;20.17;49.35
35649;BME280;21768;48.562;13.414;2023-06-01T06:21:43;97395.66;;;20.25;49.42
35649;BME280;21768;48.562;13.414;2023-06-01T06:24:11;97404.31;;;20.30;48.46
35649;BME280;21768;48.562;13.414;2023-06-01T06:26:45;97401.06;;;20.36;47.26
35649;BME280;21768;48.562;13.414;2023-06-01T06:29:21;97397.88;;;20.43;47.27
35649;BME280;21768;48.562;13.414;2023-06-01T06:31:49;97400.81;;;20.58;47.82
35649;BME280;21768;48.562;13.414;2023-06-01T06:34:16;97397.06;;;20.77;47.81
35649;BME280;21768;48.562;13.414;2023-06-01T06:36:41;97401.59;;;20.89;46.83
35649;BME280;21768;48.562;13.414;2023-06-01T06:39:10;97406.88;;;20.95;45.24
35649;BME280;21768;48.562;13.414;2023-06-01T06:41:44;97394.25;;;21.04;45.58
35649;BME280;21768;48.562;13.414;2023-06-01T06:44:15;97403.28;;;21.21;46.66
35649;BME280;21768;48.562;13.414;2023-06-01T06:46:41;97399.34;;;21.37;46.29
35649;BME280;21768;48.562;13.414;2023-06-01T06:49:06;97402.22;;;21.49;46.62
35649;BME280;21768;48.562;13.414;2023-06-01T06:51:33;97398.13;;;21.59;45.44
35649;BME280;21768;48.562;13.414;2023-06-01T06:54:01;97396.69;;;21.71;45.31
35649;BME280;21768;48.562;13.414;2023-06-01T06:56:33;97390.09;;;21.84;44.79
35649;BME280;21768;48.562;13.414;2023-06-01T06:58:59;97388.63;;;21.95;44.55
35649;BME280;21768;48.562;13.414;2023-06-01T07:01:24;97388.00;;;22.05;45.32
35649;BME280;21768;48.562;13.414;2023-06-01T07:03:55;97394.19;;;22.15;44.01
35649;BME280;21768;48.562;13.414;2023-06-01T07:06:21;97390.91;;;22.22;43.37
35649;BME280;21768;48.562;13.414;2023-06-01T07:08:48;97393.56;;;22.27;44.66
35649;BME280;21768;48.562;13.414;2023-06-01T07:11:13;97386.06;;;22.39;44.83
35649;BME280;21768;48.562;13.414;2023-06-01T07:13:39;97384.72;;;22.59;44.24
35649;BME280;21768;48.562;13.414;2023-06-01T07:16:04;97381.56;;;22.74;43.43
35649;BME280;21768;48.562;13.414;2023-06-01T07:18:30;97382.69;;;22.88;44.04
35649;BME280;21768;48.562;13.414;2023-06-01T07:20:57;97388.03;;;23.02;42.10
35649;BME280;21768;48.562;13.414;2023-06-01T07:23:23;97387.34;;;23.12;41.86
35649;BME280;21768;48.562;13.414;2023-06-01T07:25:48;97390.09;;;23.21;42.44
35649;BME280;21768;48.562;13.414;2023-06-01T07:28:13;97382.47;;;23.30;40.96
35649;BME280;21768;48.562;13.414;2023-06-01T07:30:40;97375.72;;;23.37;42.13
35649;BME280;21768;48.562;13.414;2023-06-01T07:33:06;97378.47;;;23.49;41.80
35649;BME280;21768;48.562;13.414;2023-06-01T07:35:31;97380.38;;;23.61;42.13
35649;BME280;21768;48.562;13.414;2023-06-01T07:37:58;97377.00;;;23.66;40.31
35649;BME280;21768;48.562;13.414;2023-06-01T07:40:23;97381.38;;;23.72;40.97
35649;BME280;21768;48.562;13.414;2023-06-01T07:42:49;97376.31;;;23.80;40.69
35649;BME280;21768;48.562;13.414;2023-06-01T07:45:14;97377.38;;;23.95;40.59
35649;BME280;21768;48.562;13.414;2023-06-01T07:47:40;97371.50;;;24.07;39.86
35649;BME280;21768;48.562;13.414;2023-06-01T07:50:06;97371.59;;;24.16;40.04
35649;BME280;21768;48.562;13.414;2023-06-01T07:52:32;97370.03;;;24.29;39.29
35649;BME280;21768;48.562;13.414;2023-06-01T07:54:58;97369.22;;;24.33;38.01
35649;BME280;21768;48.562;13.414;2023-06-01T07:57:23;97368.47;;;24.41;38.53
35649;BME280;21768;48.562;13.414;2023-06-01T07:59:49;97364.28;;;24.54;37.64
35649;BME280;21768;48.562;13.414;2023-06-01T08:02:14;97369.56;;;24.66;38.22
35649;BME280;21768;48.562;13.414;2023-06-01T08:04:41;97362.75;;;24.71;38.40
35649;BME280;21768;48.562;13.414;2023-06-01T08:07:08;97366.25;;;24.83;36.23
35649;BME280;21768;48.562;13.414;2023-06-01T08:09:35;97367.22;;;24.92;37.34
35649;BME280;21768;48.562;13.414;2023-06-01T08:12:02;97361.25;;;24.95;36.29
35649;BME280;21768;48.562;13.414;2023-06-01T08:14:28;97366.34;;;24.92;36.88
35649;BME280;21768;48.562;13.414;2023-06-01T08:16:53;97360.25;;;24.84;36.03
35649;BME280;21768;48.562;13.414;2023-06-01T08:19:19;97357.59;;;24.74;38.00
35649;BME280;21768;48.562;13.414;2023-06-01T08:21:44;97363.75;;;24.90;38.24
35649;BME280;21768;48.562;13.414;2023-06-01T08:24:11;97345.88;;;25.13;37.07
35649;BME280;21768;48.562;13.414;2023-06-01T08:26:37;97348.53;;;25.25;37.80
35649;BME280;21768;48.562;13.414;2023-06-01T08:29:03;97351.19;;;25.39;36.13
35649;BME280;21768;48.562;13.414;2023-06-01T08:31:28;97353.84;;;25.51;34.77
35649;BME280;21768;48.562;13.414;2023-06-01T08:33:55;97342.69;;;25.60;35.61
35649;BME280;21768;48.562;13.414;2023-06-01T08:36:21;97358.31;;;25.72;34.59
35649;BME280;21768;48.562;13.414;2023-06-01T08:38:48;97351.41;;;25.74;33.48
35649;BME280;21768;48.562;13.414;2023-06-01T08:41:28;97346.25;;;25.77;34.99
35649;BME280;21768;48.562;13.414;2023-06-01T08:44:03;97342.88;;;25.99;33.58
35649;BME280;21768;48.562;13.414;2023-06-01T08:46:32;97342.94;;;26.12;32.97
35649;BME280;21768;48.562;13.414;2023-06-01T08:48:59;97344.69;;;26.19;32.68
35649;BME280;21768;48.562;13.414;2023-06-01T08:51:25;97346.47;;;26.35;33.54
35649;BME280;21768;48.562;13.414;2023-06-01T08:53:53;97346.53;;;26.67;33.13
35649;BME280;21768;48.562;13.414;2023-06-01T08:56:19;97340.50;;;27.10;31.66
35649;BME280;21768;48.562;13.414;2023-06-01T08:58:47;97343.06;;;27.00;32.17
35649;BME280;21768;48.562;13.414;2023-06-01T09:01:17;97337.88;;;26.88;31.56
35649;BME280;21768;48.562;13.414;2023-06-01T09:03:44;97335.31;;;26.94;31.62
35649;BME280;21768;48.562;13.414;2023-06-01T09:06:10;97338.75;;;27.02;31.73
35649;BME280;21768;48.562;13.414;2023-06-01T09:08:35;97324.88;;;27.41;31.55
35649;BME280;21768;48.562;13.414;2023-06-01T09:11:01;97324.03;;;27.34;31.17
35649;BME280;21768;48.562;13.414;2023-06-01T09:13:39;97329.22;;;27.37;32.26
35649;BME280;21768;48.562;13.414;2023-06-01T09:16:05;97324.88;;;27.44;30.89
35649;BME280;21768;48.562;13.414;2023-06-01T09:18:31;97324.78;;;27.81;30.89
35649;BME280;21768;48.562;13.414;2023-06-01T09:21:10;97329.56;;;28.55;30.63
35649;BME280;21768;48.562;13.414;2023-06-01T09:23:36;97319.56;;;29.15;28.91
35649;BME280;21768;48.562;13.414;2023-06-01T09:26:07;97326.81;;;30.36;27.12
35649;BME280;21768;48.562;13.414;2023-06-01T09:31:43;97318.28;;;33.30;25.31
35649;BME280;21768;48.562;13.414;2023-06-01T09:34:19;97322.81;;;35.00;23.45
35649;BME280;21768;48.562;13.414;2023-06-01T09:36:45;97317.00;;;36.82;20.92
35649;BME280;21768;48.562;13.414;2023-06-01T09:39:13;97314.31;;;37.85;19.91
35649;BME280;21768;48.562;13.414;2023-06-01T09:41:59;97321.50;;;37.40;20.62
35649;BME280;21768;48.562;13.414;2023-06-01T09:44:29;97324.84;;;37.03;22.94
35649;BME280;21768;48.562;13.414;2023-06-01T09:47:15;97319.09;;;36.72;20.52
35649;BME280;21768;48.562;13.414;2023-06-01T09:49:42;97318.13;;;36.53;19.49
35649;BME280;21768;48.562;13.414;2023-06-01T09:52:14;97314.47;;;37.41;18.83
35649;BME280;21768;48.562;13.414;2023-06-01T09:54:46;97316.22;;;37.81;18.78
35649;BME280;21768;48.562;13.414;2023-06-01T09:57:12;97317.47;;;38.30;17.40
35649;BME280;21768;48.562;13.414;2023-06-01T09:59:47;97309.03;;;37.85;17.67
35649;BME280;21768;48.562;13.414;2023-06-01T10:02:13;97308.19;;;37.03;18.58
35649;BME280;21768;48.562;13.414;2023-06-01T10:04:40;97302.44;;;36.93;19.20
35649;BME280;21768;48.562;13.414;2023-06-01T10:07:07;97300.25;;;37.45;19.02
35649;BME280;21768;48.562;13.414;2023-06-01T10:09:35;97303.22;;;38.34;17.96
35649;BME280;21768;48.562;13.414;2023-06-01T10:12:04;97289.72;;;38.59;17.58
35649;BME280;21768;48.562;13.414;2023-06-01T10:14:30;97292.16;;;38.07;17.67
35649;BME280;21768;48.562;13.414;2023-06-01T10:16:57;97291.59;;;38.74;17.41
35649;BME280;21768;48.562;13.414;2023-06-01T10:19:23;97291.75;;;38.71;18.19
35649;BME280;21768;48.562;13.414;2023-06-01T10:21:48;97282.03;;;39.08;17.51
35649;BME280;21768;48.562;13.414;2023-06-01T10:24:17;97292.22;;;38.97;17.61
35649;BME280;21768;48.562;13.414;2023-06-01T10:27:01;97288.13;;;40.09;17.00
35649;BME280;21768;48.562;13.414;2023-06-01T10:29:30;97288.94;;;40.72;16.17
35649;BME280;21768;48.562;13.414;2023-06-01T10:31:56;97285.66;;;40.99;16.77
35649;BME280;21768;48.562;13.414;2023-06-01T10:34:41;97277.66;;;40.85;16.37
35649;BME280;21768;48.562;13.414;2023-06-01T10:39:33;97279.34;;;40.86;15.40
35649;BME280;21768;48.562;13.414;2023-06-01T10:44:47;97279.69;;;41.39;14.59
35649;BME280;21768;48.562;13.414;2023-06-01T10:52:31;97272.13;;;42.72;13.75
35649;BME280;21768;48.562;13.414;2023-06-01T10:57:33;97268.06;;;43.06;13.80
35649;BME280;21768;48.562;13.414;2023-06-01T11:00:12;97271.38;;;41.16;14.70
35649;BME280;21768;48.562;13.414;2023-06-01T11:13:17;97260.38;;;34.02;22.37
35649;BME280;21768;48.562;13.414;2023-06-01T11:18:46;97251.91;;;33.00;23.28
35649;BME280;21768;48.562;13.414;2023-06-01T11:21:21;97244.56;;;32.82;24.66
35649;BME280;21768;48.562;13.414;2023-06-01T11:23:47;97245.19;;;32.56;24.39
35649;BME280;21768;48.562;13.414;2023-06-01T11:26:14;97241.63;;;32.23;24.63
35649;BME280;21768;48.562;13.414;2023-06-01T11:28:44;97246.44;;;32.02;25.84
35649;BME280;21768;48.562;13.414;2023-06-01T11:31:11;97247.00;;;31.76;24.52
35649;BME280;21768;48.562;13.414;2023-06-01T11:33:39;97250.50;;;31.32;25.64
35649;BME280;21768;48.562;13.414;2023-06-01T11:36:07;97243.09;;;31.09;25.63
35649;BME280;21768;48.562;13.414;2023-06-01T11:38:34;97236.50;;;30.90;26.74
35649;BME280;21768;48.562;13.414;2023-06-01T11:41:01;97239.00;;;30.95;26.31
35649;BME280;21768;48.562;13.414;2023-06-01T11:43:30;97238.97;;;30.96;25.98
35649;BME280;21768;48.562;13.414;2023-06-01T11:46:03;97228.56;;;30.95;26.14
35649;BME280;21768;48.562;13.414;2023-06-01T11:48:29;97229.47;;;30.94;25.91
35649;BME280;21768;48.562;13.414;2023-06-01T11:50:55;97230.38;;;30.93;25.99
35649;BME280;21768;48.562;13.414;2023-06-01T11:53:21;97223.72;;;30.76;25.57
35649;BME280;21768;48.562;13.414;2023-06-01T11:55:56;97216.97;;;30.66;25.66
35649;BME280;21768;48.562;13.414;2023-06-01T11:58:28;97218.81;;;30.60;26.19
35649;BME280;21768;48.562;13.414;2023-06-01T12:00:55;97219.84;;;30.46;26.82
35649;BME280;21768;48.562;13.414;2023-06-01T12:03:21;97219.88;;;30.45;26.41
35649;BME280;21768;48.562;13.414;2023-06-01T12:05:46;97216.53;;;30.38;27.15
35649;BME280;21768;48.562;13.414;2023-06-01T12:08:18;97214.59;;;30.50;26.25
35649;BME280;21768;48.562;13.414;2023-06-01T12:10:45;97214.00;;;30.34;26.90
35649;BME280;21768;48.562;13.414;2023-06-01T12:13:13;97212.31;;;30.30;28.24
35649;BME280;21768;48.562;13.414;2023-06-01T12:15:38;97214.84;;;30.36;26.89
35649;BME280;21768;48.562;13.414;2023-06-01T12:18:04;97208.66;;;30.43;27.51
35649;BME280;21768;48.562;13.414;2023-06-01T12:20:33;97210.25;;;30.50;27.31
35649;BME280;21768;48.562;13.414;2023-06-01T12:23:02;97193.72;;;30.51;26.92
35649;BME280;21768;48.562;13.414;2023-06-01T12:25:31;97206.69;;;30.57;27.01
35649;BME280;21768;48.562;13.414;2023-06-01T12:30:29;97198.59;;;30.72;27.34
35649;BME280;21768;48.562;13.414;2023-06-01T12:32:55;97190.66;;;30.78;27.33
35649;BME280;21768;48.562;13.414;2023-06-01T12:35:20;97191.56;;;30.76;27.26
35649;BME280;21768;48.562;13.414;2023-06-01T12:38:08;97188.22;;;30.69;26.54
35649;BME280;21768;48.562;13.414;2023-06-01T12:40:35;97185.69;;;30.66;26.42
35649;BME280;21768;48.562;13.414;2023-06-01T12:43:02;97178.75;;;30.67;27.30
35649;BME280;21768;48.562;13.414;2023-06-01T12:45:36;97175.19;;;30.69;27.10
35649;BME280;21768;48.562;13.414;2023-06-01T12:48:02;97164.91;;;30.63;25.93
35649;BME280;21768;48.562;13.414;2023-06-01T12:50:28;97179.78;;;30.55;25.85
35649;BME280;21768;48.562;13.414;2023-06-01T12:52:54;97168.41;;;30.62;27.52
35649;BME280;21768;48.562;13.414;2023-06-01T12:55:19;97167.56;;;30.60;26.35
35649;BME280;21768;48.562;13.414;2023-06-01T12:57:54;97157.41;;;30.43;25.58
35649;BME280;21768;48.562;13.414;2023-06-01T13:00:20;97168.91;;;30.32;25.53
35649;BME280;21768;48.562;13.414;2023-06-01T13:02:46;97157.50;;;30.39;25.82
35649;BME280;21768;48.562;13.414;2023-06-01T13:05:18;97156.47;;;30.46;26.83
35649;BME280;21768;48.562;13.414;2023-06-01T13:07:43;97158.16;;;30.50;27.61
35649;BME280;21768;48.562;13.414;2023-06-01T13:10:12;97155.41;;;30.61;26.62
35649;BME280;21768;48.562;13.414;2023-06-01T13:12:38;97157.06;;;30.65;26.77
35649;BME280;21768;48.562;13.414;2023-06-01T13:15:06;97154.47;;;30.65;26.92
35649;BME280;21768;48.562;13.414;2023-06-01T13:17:32;97157.13;;;30.62;26.90
35649;BME280;21768;48.562;13.414;2023-06-01T13:19:58;97148.28;;;30.69;26.79
35649;BME280;21768;48.562;13.414;2023-06-01T13:22:23;97144.72;;;30.73;27.35
35649;BME280;21768;48.562;13.414;2023-06-01T13:24:48;97141.97;;;30.82;27.05
35649;BME280;21768;48.562;13.414;2023-06-01T13:27:14;97135.69;;;30.92;26.75
35649;BME280;21768;48.562;13.414;2023-06-01T13:29:39;97140.69;;;31.01;25.52
35649;BME280;21768;48.562;13.414;2023-06-01T13:32:05;97134.44;;;31.10;24.25
35649;BME280;21768;48.562;13.414;2023-06-01T13:34:30;97127.22;;;31.24;24.94
35649;BME280;21768;48.562;13.414;2023-06-01T13:36:57;97128.69;;;31.37;24.76